createdAt,value
2023-05-12T00:00:50.347Z,15.20
2023-05-12T00:07:11.169Z,14.90
2023-05-12T00:13:32.007Z,12.90
2023-05-12T00:19:53.018Z,15.90
2023-05-12T00:25:48.645Z,15.40
2023-05-12T00:31:49.524Z,15.90
2023-05-12T00:37:10.662Z,19.40
2023-05-12T00:43:11.499Z,13.80
2023-05-12T00:49:32.290Z,11.20
2023-05-12T00:54:54.318Z,17.40
2023-05-12T01:00:55.511Z,18.00
2023-05-12T01:06:33.764Z,11.80
2023-05-12T01:11:35.025Z,10.90
2023-05-12T01:17:36.082Z,15.10
2023-05-12T01:23:58.704Z,15.90
2023-05-12T01:30:22.371Z,15.40
2023-05-12T01:36:43.426Z,12.60
2023-05-12T01:43:04.526Z,12.50
2023-05-12T01:49:26.965Z,18.30
2023-05-12T01:55:48.147Z,14.50
2023-05-12T02:02:10.767Z,18.50
2023-05-12T02:07:32.112Z,17.60
2023-05-12T02:13:33.161Z,16.80
2023-05-12T02:19:54.720Z,17.40
2023-05-12T02:26:16.184Z,16.70
2023-05-12T02:32:37.571Z,18.90
2023-05-12T02:39:00.142Z,12.50
2023-05-12T02:45:21.110Z,15.20
2023-05-12T02:51:42.042Z,24.70
2023-05-12T02:58:03.044Z,17.00
2023-05-12T03:03:24.374Z,17.90
2023-05-12T03:09:25.315Z,14.20
2023-05-12T03:15:46.209Z,19.40
2023-05-12T03:21:57.168Z,17.70
2023-05-12T03:27:58.948Z,24.20
2023-05-12T03:34:19.833Z,17.90
2023-05-12T03:40:41.098Z,17.90
2023-05-12T03:46:43.016Z,21.90
2023-05-12T03:52:44.038Z,16.30
2023-05-12T04:04:30.972Z,18.60
2023-05-12T04:09:33.419Z,18.80
2023-05-12T04:14:42.166Z,16.50
2023-05-12T04:20:03.678Z,21.50
2023-05-12T04:25:05.248Z,17.50
2023-05-12T04:30:07.228Z,19.20
2023-05-12T04:35:10.744Z,17.50
2023-05-12T04:40:12.104Z,21.60
2023-05-12T04:46:13.285Z,22.20
2023-05-12T04:52:34.323Z,15.90
2023-05-12T04:58:55.332Z,19.20
2023-05-12T05:03:57.265Z,17.20
2023-05-12T05:08:58.743Z,18.10
2023-05-12T05:14:59.740Z,16.90
2023-05-12T05:21:20.718Z,21.80
2023-05-12T05:27:41.751Z,24.00
2023-05-12T05:34:02.825Z,17.00
2023-05-12T05:40:24.141Z,13.80
2023-05-12T05:45:45.628Z,24.90
2023-05-12T05:50:47.673Z,11.00
2023-05-12T05:55:49.205Z,15.50
2023-05-12T06:00:50.507Z,14.30
2023-05-12T06:05:52.892Z,13.80
2023-05-12T06:10:54.000Z,14.00
2023-05-12T06:15:55.149Z,14.70
2023-05-12T06:20:56.278Z,11.40
2023-05-12T06:25:57.433Z,10.40
2023-05-12T06:31:01.568Z,16.40
2023-05-12T06:36:03.115Z,12.70
2023-05-12T06:41:04.400Z,12.30
2023-05-12T06:46:06.219Z,12.10
2023-05-12T06:51:07.973Z,14.00
2023-05-12T06:56:10.725Z,15.30
2023-05-12T07:01:12.048Z,12.10
2023-05-12T07:06:13.259Z,7.80
2023-05-12T07:11:19.484Z,10.80
2023-05-12T07:16:20.566Z,13.90
2023-05-12T07:21:21.796Z,9.20
2023-05-12T07:26:23.607Z,10.80
2023-05-12T07:31:24.675Z,15.60
2023-05-12T07:36:26.218Z,7.20
2023-05-12T07:41:27.657Z,6.50
2023-05-12T07:46:28.921Z,8.60
2023-05-12T07:51:30.250Z,13.30
2023-05-12T07:56:31.455Z,11.00
2023-05-12T08:01:32.731Z,10.40
2023-05-12T08:06:34.063Z,11.10
2023-05-12T08:11:35.308Z,5.00
2023-05-12T08:16:36.575Z,8.20
2023-05-12T08:21:37.835Z,8.80
2023-05-12T08:26:39.009Z,7.20
2023-05-12T08:31:40.284Z,14.80
2023-05-12T08:37:41.464Z,7.40
2023-05-12T08:44:11.105Z,10.10
2023-05-12T08:50:37.736Z,10.20
2023-05-12T09:03:22.266Z,9.60
2023-05-12T09:09:43.076Z,4.60
2023-05-12T09:16:06.572Z,7.70
2023-05-12T09:22:27.500Z,10.60
2023-05-12T09:27:55.908Z,11.80
2023-05-12T09:33:07.965Z,5.50
2023-05-12T09:38:10.769Z,10.10
2023-05-12T09:43:14.390Z,10.40
2023-05-12T09:48:16.791Z,4.70
2023-05-12T09:53:19.678Z,8.30
2023-05-12T09:58:23.393Z,5.00
2023-05-12T10:03:29.436Z,9.20
2023-05-12T10:08:36.818Z,10.30
2023-05-12T10:13:39.139Z,9.30
2023-05-12T10:18:43.699Z,7.70
2023-05-12T10:23:45.734Z,8.40
2023-05-12T10:28:48.404Z,4.20
2023-05-12T10:34:00.582Z,5.50
2023-05-12T10:39:05.865Z,7.80
2023-05-12T10:49:11.711Z,4.10
2023-05-12T10:54:20.349Z,11.70
2023-05-12T10:59:26.152Z,4.20
2023-05-12T11:04:40.344Z,6.10
2023-05-12T11:09:56.580Z,4.50
2023-05-12T11:15:01.163Z,8.90
2023-05-12T11:20:02.607Z,4.60
2023-05-12T11:25:11.178Z,8.70
2023-05-12T11:31:12.076Z,8.00
2023-05-12T11:37:35.932Z,8.50
2023-05-12T11:43:56.945Z,4.30
2023-05-12T11:50:26.592Z,5.60
2023-05-12T11:56:50.550Z,7.20
2023-05-12T12:03:11.562Z,5.20
2023-05-12T12:09:32.564Z,3.60
2023-05-12T12:15:53.432Z,6.80
2023-05-12T12:22:14.552Z,4.90
2023-05-12T12:27:36.116Z,10.50
2023-05-12T12:32:37.174Z,6.10
2023-05-12T12:38:38.158Z,4.40
2023-05-12T12:44:59.166Z,10.30
2023-05-12T12:51:20.020Z,9.80
2023-05-12T12:57:50.942Z,7.70
2023-05-12T13:04:11.756Z,8.00
2023-05-12T13:10:32.582Z,9.80
2023-05-12T13:16:53.479Z,6.20
2023-05-12T13:23:14.402Z,6.00
2023-05-12T13:29:35.414Z,7.10
2023-05-12T13:35:56.195Z,6.90
2023-05-12T13:42:16.973Z,7.00
2023-05-12T13:48:37.958Z,6.30
2023-05-12T13:54:58.922Z,12.30
2023-05-12T14:01:19.880Z,5.70
2023-05-12T14:07:40.677Z,4.90
2023-05-12T14:14:01.503Z,4.60
2023-05-12T14:20:22.458Z,8.00
2023-05-12T14:26:43.260Z,6.60
2023-05-12T14:33:04.281Z,9.50
2023-05-12T14:39:25.192Z,5.90
2023-05-12T14:45:56.216Z,5.30
2023-05-12T14:52:27.257Z,5.30
2023-05-12T14:57:48.849Z,7.30
2023-05-12T15:02:50.110Z,7.80
2023-05-12T15:07:51.411Z,9.50
2023-05-12T15:12:52.820Z,5.70
2023-05-12T15:18:53.788Z,11.10
2023-05-12T15:25:14.896Z,10.40
2023-05-12T15:31:35.780Z,9.50
2023-05-12T15:37:56.641Z,10.70
2023-05-12T15:44:17.486Z,9.40
2023-05-12T15:50:36.239Z,11.30
2023-05-12T15:55:37.641Z,6.50
2023-05-12T16:09:13.615Z,7.10
2023-05-12T16:16:16.409Z,8.20
2023-05-12T16:23:23.266Z,8.10
2023-05-12T16:30:25.684Z,9.00
2023-05-12T16:37:03.832Z,7.20
2023-05-12T16:43:59.749Z,8.00
2023-05-12T16:51:03.750Z,6.60
2023-05-12T16:58:07.055Z,7.00
2023-05-12T17:04:39.665Z,7.70
2023-05-12T17:10:41.467Z,11.70
2023-05-12T17:15:50.902Z,9.20
2023-05-12T17:21:51.932Z,7.50
2023-05-12T17:28:27.326Z,7.70
2023-05-12T17:34:49.307Z,13.40
2023-05-12T17:47:52.673Z,11.90
2023-05-12T17:54:14.255Z,9.20
2023-05-12T18:01:05.083Z,9.20
2023-05-12T18:06:42.211Z,8.00
2023-05-12T18:18:07.206Z,7.70
2023-05-12T18:31:46.770Z,8.30
2023-05-12T19:33:47.160Z,12.20
2023-05-12T19:47:46.689Z,13.60
2023-05-12T20:09:29.128Z,13.30
2023-05-12T21:10:27.343Z,10.30
2023-05-12T21:16:31.520Z,12.20
2023-05-12T21:22:52.369Z,20.20
2023-05-12T21:29:13.230Z,14.80
2023-05-12T21:35:34.040Z,11.80
2023-05-12T21:41:55.643Z,13.00
2023-05-12T21:48:17.460Z,17.00
2023-05-12T21:54:38.294Z,17.90
2023-05-12T22:05:41.765Z,17.30
2023-05-12T22:11:26.077Z,15.30
2023-05-12T22:16:42.915Z,17.00
2023-05-12T22:21:44.205Z,21.90
2023-05-12T22:27:45.095Z,15.20
2023-05-12T22:34:05.938Z,17.30
2023-05-12T22:40:26.748Z,26.20
2023-05-12T22:46:50.670Z,20.80
2023-05-12T22:53:11.514Z,20.60
2023-05-12T22:59:32.397Z,17.80
2023-05-12T23:05:53.348Z,19.80
2023-05-12T23:12:15.708Z,21.90
2023-05-12T23:18:36.584Z,38.20
2023-05-12T23:24:57.427Z,24.60
2023-05-12T23:31:28.299Z,25.40
2023-05-12T23:36:51.723Z,27.70
2023-05-12T23:41:53.446Z,17.20
2023-05-12T23:46:55.707Z,18.80
2023-05-12T23:51:58.530Z,19.90
2023-05-12T23:56:59.792Z,17.00
